sensor_id;sensor_type;location;lat;lon;timestamp;pressure;altitude;pressure_sealevel;temperature;humidity
13029;BME280;6581;42.662;23.402;2023-06-10T00:00:31;94933.44;;;18.22;100.00
13029;BME280;6581;42.662;23.402;2023-06-10T00:03:01;94934.28;;;18.19;100.00
13029;BME280;6581;42.662;23.402;2023-06-10T00:05:30;94938.31;;;18.27;100.00
13029;BME280;6581;42.662;23.402;2023-06-10T00:07:57;94935.63;;;18.27;100.00
13029;BME280;6581;42.662;23.402;2023-06-10T00:10:25;94940.56;;;18.29;100.00
13029;BME280;6581;42.662;23.402;2023-06-10T00:12:56;94946.69;;;18.29;100.00
13029;BME280;6581;42.662;23.402;2023-06-10T00:15:23;94939.84;;;18.28;100.00
13029;BME280;6581;42.662;23.402;2023-06-10T00:17:53;94941.66;;;18.31;100.00
13029;BME280;6581;42.662;23.402;2023-06-10T00:20:22;94945.72;;;18.39;100.00
13029;BME280;6581;42.662;23.402;2023-06-10T00:22:52;94945.53;;;18.30;100.00
13029;BME280;6581;42.662;23.402;2023-06-10T00:25:19;94935.97;;;18.29;100.00
13029;BME280;6581;42.662;23.402;2023-06-10T00:27:48;94935.19;;;18.29;100.00
13029;BME280;6581;42.662;23.402;2023-06-10T00:30:20;94938.13;;;18.18;100.00
13029;BME280;6581;42.662;23.402;2023-06-10T00:32:47;94934.19;;;18.23;100.00
13029;BME280;6581;42.662;23.402;2023-06-10T00:35:15;94947.72;;;18.15;100.00
13029;BME280;6581;42.662;23.402;2023-06-10T00:37:43;94941.59;;;18.15;100.00
13029;BME280;6581;42.662;23.402;2023-06-10T00:40:13;94948.97;;;18.11;100.00
13029;BME280;6581;42.662;23.402;2023-06-10T00:42:43;94945.47;;;18.14;100.00
13029;BME280;6581;42.662;23.402;2023-06-10T00:45:11;94946.25;;;18.14;100.00
13029;BME280;6581;42.662;23.402;2023-06-10T00:47:42;94947.31;;;18.17;100.00
13029;BME280;6581;42.662;23.402;2023-06-10T00:50:10;94935.72;;;18.24;100.00
13029;BME280;6581;42.662;23.402;2023-06-10T00:52:38;94933.44;;;18.22;100.00
13029;BME280;6581;42.662;23.402;2023-06-10T00:55:06;94939.47;;;18.26;100.00
13029;BME280;6581;42.662;23.402;2023-06-10T00:57:35;94939.56;;;18.23;100.00
13029;BME280;6581;42.662;23.402;2023-06-10T01:00:04;94947.25;;;18.21;100.00
13029;BME280;6581;42.662;23.402;2023-06-10T01:02:36;94950.28;;;18.23;100.00
13029;BME280;6581;42.662;23.402;2023-06-10T01:05:05;94945.00;;;18.19;100.00
13029;BME280;6581;42.662;23.402;2023-06-10T01:07:38;94944.56;;;18.21;100.00
13029;BME280;6581;42.662;23.402;2023-06-10T01:10:12;94948.47;;;18.16;100.00
13029;BME280;6581;42.662;23.402;2023-06-10T01:12:49;94941.88;;;18.21;100.00
13029;BME280;6581;42.662;23.402;2023-06-10T01:15:21;94941.97;;;18.17;100.00
13029;BME280;6581;42.662;23.402;2023-06-10T01:17:57;94948.16;;;18.14;100.00
13029;BME280;6581;42.662;23.402;2023-06-10T01:20:29;94952.00;;;18.13;100.00
13029;BME280;6581;42.662;23.402;2023-06-10T01:23:00;94954.00;;;18.09;100.00
13029;BME280;6581;42.662;23.402;2023-06-10T01:25:29;94952.84;;;18.10;100.00
13029;BME280;6581;42.662;23.402;2023-06-10T01:28:07;94940.44;;;18.16;100.00
13029;BME280;6581;42.662;23.402;2023-06-10T01:30:41;94947.03;;;18.11;100.00
13029;BME280;6581;42.662;23.402;2023-06-10T01:33:12;94947.13;;;18.08;100.00
13029;BME280;6581;42.662;23.402;2023-06-10T01:35:43;94953.38;;;18.21;100.00
13029;BME280;6581;42.662;23.402;2023-06-10T01:38:15;94946.44;;;18.04;100.00
13029;BME280;6581;42.662;23.402;2023-06-10T01:40:45;94946.22;;;17.95;100.00
13029;BME280;6581;42.662;23.402;2023-06-10T01:43:15;94945.63;;;17.87;100.00
13029;BME280;6581;42.662;23.402;2023-06-10T01:45:46;94938.19;;;17.75;100.00
13029;BME280;6581;42.662;23.402;2023-06-10T01:48:14;94945.34;;;17.82;100.00
13029;BME280;6581;42.662;23.402;2023-06-10T01:50:43;94936.06;;;17.86;100.00
13029;BME280;6581;42.662;23.402;2023-06-10T01:53:10;94944.25;;;17.99;100.00
13029;BME280;6581;42.662;23.402;2023-06-10T01:55:39;94939.63;;;17.99;100.00
13029;BME280;6581;42.662;23.402;2023-06-10T01:58:06;94938.31;;;18.07;100.00
13029;BME280;6581;42.662;23.402;2023-06-10T02:00:35;94933.63;;;18.11;100.00
13029;BME280;6581;42.662;23.402;2023-06-10T02:03:02;94931.31;;;18.13;100.00
13029;BME280;6581;42.662;23.402;2023-06-10T02:05:29;94934.28;;;18.19;100.00
13029;BME280;6581;42.662;23.402;2023-06-10T02:07:57;94928.91;;;18.19;100.00
13029;BME280;6581;42.662;23.402;2023-06-10T02:10:25;94936.03;;;18.26;100.00
13029;BME280;6581;42.662;23.402;2023-06-10T02:12:55;94933.28;;;18.29;100.00
13029;BME280;6581;42.662;23.402;2023-06-10T02:15:23;94938.63;;;18.29;100.00
13029;BME280;6581;42.662;23.402;2023-06-10T02:17:50;94925.41;;;18.38;100.00
13029;BME280;6581;42.662;23.402;2023-06-10T02:20:18;94929.28;;;18.37;100.00
13029;BME280;6581;42.662;23.402;2023-06-10T02:22:45;94920.91;;;18.35;100.00
13029;BME280;6581;42.662;23.402;2023-06-10T02:25:12;94917.19;;;18.29;100.00
13029;BME280;6581;42.662;23.402;2023-06-10T02:27:39;94920.53;;;18.33;100.00
13029;BME280;6581;42.662;23.402;2023-06-10T02:30:09;94918.56;;;18.37;100.00
13029;BME280;6581;42.662;23.402;2023-06-10T02:32:36;94905.97;;;18.34;100.00
13029;BME280;6581;42.662;23.402;2023-06-10T02:35:04;94909.34;;;18.38;100.00
13029;BME280;6581;42.662;23.402;2023-06-10T02:37:32;94905.56;;;18.36;100.00
13029;BME280;6581;42.662;23.402;2023-06-10T02:40:00;94917.38;;;18.38;100.00
13029;BME280;6581;42.662;23.402;2023-06-10T02:42:27;94913.22;;;18.37;100.00
13029;BME280;6581;42.662;23.402;2023-06-10T02:44:54;94910.25;;;18.32;100.00
13029;BME280;6581;42.662;23.402;2023-06-10T02:47:34;94910.25;;;18.32;100.00
13029;BME280;6581;42.662;23.402;2023-06-10T02:50:01;94903.66;;;18.36;100.00
13029;BME280;6581;42.662;23.402;2023-06-10T02:52:32;94913.88;;;18.41;100.00
13029;BME280;6581;42.662;23.402;2023-06-10T02:54:59;94904.72;;;18.39;100.00
13029;BME280;6581;42.662;23.402;2023-06-10T02:57:27;94910.00;;;18.42;100.00
13029;BME280;6581;42.662;23.402;2023-06-10T02:59:54;94907.84;;;18.37;100.00
13029;BME280;6581;42.662;23.402;2023-06-10T03:02:22;94905.22;;;18.34;100.00
13029;BME280;6581;42.662;23.402;2023-06-10T03:04:56;94901.78;;;18.33;100.00
13029;BME280;6581;42.662;23.402;2023-06-10T03:07:24;94902.97;;;18.32;100.00
13029;BME280;6581;42.662;23.402;2023-06-10T03:09:53;94905.66;;;18.32;100.00
13029;BME280;6581;42.662;23.402;2023-06-10T03:12:20;94907.66;;;18.28;100.00
13029;BME280;6581;42.662;23.402;2023-06-10T03:14:48;94909.91;;;18.30;100.00
13029;BME280;6581;42.662;23.402;2023-06-10T03:17:16;94911.00;;;18.32;100.00
13029;BME280;6581;42.662;23.402;2023-06-10T03:19:45;94906.72;;;18.35;100.00
13029;BME280;6581;42.662;23.402;2023-06-10T03:22:16;94905.97;;;18.34;100.00
13029;BME280;6581;42.662;23.402;2023-06-10T03:25:02;94914.38;;;18.36;100.00
13029;BME280;6581;42.662;23.402;2023-06-10T03:27:30;94917.31;;;18.42;100.00
13029;BME280;6581;42.662;23.402;2023-06-10T03:30:00;94923.84;;;18.41;100.00
13029;BME280;6581;42.662;23.402;2023-06-10T03:32:28;94927.13;;;18.48;100.00
13029;BME280;6581;42.662;23.402;2023-06-10T03:34:55;94924.66;;;18.57;100.00
13029;BME280;6581;42.662;23.402;2023-06-10T03:37:26;94926.53;;;18.61;100.00
13029;BME280;6581;42.662;23.402;2023-06-10T03:39:53;94935.47;;;18.54;100.00
13029;BME280;6581;42.662;23.402;2023-06-10T03:42:20;94934.75;;;18.50;100.00
13029;BME280;6581;42.662;23.402;2023-06-10T03:44:47;94936.56;;;18.56;100.00
13029;BME280;6581;42.662;23.402;2023-06-10T03:47:14;94944.47;;;18.44;100.00
13029;BME280;6581;42.662;23.402;2023-06-10T03:49:42;94940.53;;;18.12;100.00
13029;BME280;6581;42.662;23.402;2023-06-10T03:52:10;94938.59;;;17.73;100.00
13029;BME280;6581;42.662;23.402;2023-06-10T03:54:38;94939.19;;;17.61;100.00
13029;BME280;6581;42.662;23.402;2023-06-10T03:57:05;94939.63;;;17.56;100.00
13029;BME280;6581;42.662;23.402;2023-06-10T03:59:33;94933.53;;;17.56;100.00
13029;BME280;6581;42.662;23.402;2023-06-10T04:02:00;94930.22;;;17.48;100.00
13029;BME280;6581;42.662;23.402;2023-06-10T04:04:27;94928.72;;;17.47;100.00
13029;BME280;6581;42.662;23.402;2023-06-10T04:06:56;94935.88;;;17.54;100.00
13029;BME280;6581;42.662;23.402;2023-06-10T04:09:23;94935.81;;;17.57;100.00
13029;BME280;6581;42.662;23.402;2023-06-10T04:11:51;94936.19;;;17.59;100.00
13029;BME280;6581;42.662;23.402;2023-06-10T04:14:19;94937.84;;;17.50;100.00
13029;BME280;6581;42.662;23.402;2023-06-10T04:16:47;94944.44;;;17.45;100.00
13029;BME280;6581;42.662;23.402;2023-06-10T04:19:14;94938.66;;;17.47;100.00
13029;BME280;6581;42.662;23.402;2023-06-10T04:21:43;94949.19;;;17.57;100.00
13029;BME280;6581;42.662;23.402;2023-06-10T04:24:10;94951.72;;;17.68;100.00
13029;BME280;6581;42.662;23.402;2023-06-10T04:26:38;94950.59;;;17.65;100.00
13029;BME280;6581;42.662;23.402;2023-06-10T04:29:07;94942.91;;;17.67;100.00
13029;BME280;6581;42.662;23.402;2023-06-10T04:31:34;94949.28;;;17.73;100.00
13029;BME280;6581;42.662;23.402;2023-06-10T04:34:01;94946.03;;;17.86;100.00
13029;BME280;6581;42.662;23.402;2023-06-10T04:36:29;94946.84;;;17.83;100.00
13029;BME280;6581;42.662;23.402;2023-06-10T04:38:56;94949.47;;;17.86;100.00
13029;BME280;6581;42.662;23.402;2023-06-10T04:41:23;94948.78;;;17.82;100.00
13029;BME280;6581;42.662;23.402;2023-06-10T04:43:51;94956.34;;;17.87;100.00
13029;BME280;6581;42.662;23.402;2023-06-10T04:46:21;94948.34;;;17.84;100.00
13029;BME280;6581;42.662;23.402;2023-06-10T04:48:48;94945.94;;;17.89;100.00
13029;BME280;6581;42.662;23.402;2023-06-10T04:51:15;94939.84;;;17.89;100.00
13029;BME280;6581;42.662;23.402;2023-06-10T04:53:42;94942.31;;;17.99;100.00
13029;BME280;6581;42.662;23.402;2023-06-10T04:56:09;94935.56;;;18.11;100.00
13029;BME280;6581;42.662;23.402;2023-06-10T04:58:36;94943.88;;;18.16;100.00
13029;BME280;6581;42.662;23.402;2023-06-10T05:01:03;94945.31;;;18.21;100.00
13029;BME280;6581;42.662;23.402;2023-06-10T05:03:32;94950.13;;;18.30;100.00
13029;BME280;6581;42.662;23.402;2023-06-10T05:05:59;94944.69;;;18.33;100.00
13029;BME280;6581;42.662;23.402;2023-06-10T05:08:26;94945.78;;;18.36;100.00
13029;BME280;6581;42.662;23.402;2023-06-10T05:10:53;94940.63;;;18.45;100.00
13029;BME280;6581;42.662;23.402;2023-06-10T05:13:21;94943.09;;;18.55;100.00
13029;BME280;6581;42.662;23.402;2023-06-10T05:15:49;94936.72;;;18.66;100.00
13029;BME280;6581;42.662;23.402;2023-06-10T05:18:16;94941.03;;;18.79;100.00
13029;BME280;6581;42.662;23.402;2023-06-10T05:20:44;94940.47;;;18.88;100.00
13029;BME280;6581;42.662;23.402;2023-06-10T05:23:12;94933.66;;;18.99;100.00
13029;BME280;6581;42.662;23.402;2023-06-10T05:25:40;94925.13;;;19.04;100.00
13029;BME280;6581;42.662;23.402;2023-06-10T05:28:08;94937.59;;;19.11;100.00
13029;BME280;6581;42.662;23.402;2023-06-10T05:30:36;94936.00;;;19.14;100.00
13029;BME280;6581;42.662;23.402;2023-06-10T05:33:03;94931.66;;;19.20;100.00
13029;BME280;6581;42.662;23.402;2023-06-10T05:35:30;94945.41;;;19.38;100.00
13029;BME280;6581;42.662;23.402;2023-06-10T05:37:59;94940.44;;;19.53;100.00
13029;BME280;6581;42.662;23.402;2023-06-10T05:40:26;94946.91;;;19.55;100.00
13029;BME280;6581;42.662;23.402;2023-06-10T05:42:54;94944.88;;;19.59;100.00
13029;BME280;6581;42.662;23.402;2023-06-10T05:45:21;94950.63;;;19.29;100.00
13029;BME280;6581;42.662;23.402;2023-06-10T05:47:48;94951.38;;;19.29;100.00
13029;BME280;6581;42.662;23.402;2023-06-10T05:50:15;94941.72;;;19.16;100.00
13029;BME280;6581;42.662;23.402;2023-06-10T05:52:42;94952.03;;;19.33;100.00
13029;BME280;6581;42.662;23.402;2023-06-10T05:55:11;94953.03;;;19.56;100.00
13029;BME280;6581;42.662;23.402;2023-06-10T05:57:38;94950.56;;;19.77;100.00
13029;BME280;6581;42.662;23.402;2023-06-10T06:00:06;94958.63;;;20.06;100.00
13029;BME280;6581;42.662;23.402;2023-06-10T06:02:38;94952.31;;;20.25;100.00
13029;BME280;6581;42.662;23.402;2023-06-10T06:05:06;94954.31;;;20.50;100.00
13029;BME280;6581;42.662;23.402;2023-06-10T06:07:33;94970.47;;;20.63;100.00
13029;BME280;6581;42.662;23.402;2023-06-10T06:10:00;94973.59;;;20.74;100.00
13029;BME280;6581;42.662;23.402;2023-06-10T06:12:28;94967.03;;;20.62;100.00
13029;BME280;6581;42.662;23.402;2023-06-10T06:14:55;94958.97;;;20.75;100.00
13029;BME280;6581;42.662;23.402;2023-06-10T06:17:22;94964.00;;;20.48;100.00
13029;BME280;6581;42.662;23.402;2023-06-10T06:19:50;94961.56;;;20.78;100.00
13029;BME280;6581;42.662;23.402;2023-06-10T06:22:17;94962.94;;;20.83;100.00
13029;BME280;6581;42.662;23.402;2023-06-10T06:24:47;94956.28;;;21.13;100.00
13029;BME280;6581;42.662;23.402;2023-06-10T06:27:15;94956.50;;;21.18;100.00
13029;BME280;6581;42.662;23.402;2023-06-10T06:29:43;94953.13;;;21.27;100.00
13029;BME280;6581;42.662;23.402;2023-06-10T06:32:10;94951.22;;;21.15;100.00
13029;BME280;6581;42.662;23.402;2023-06-10T06:34:37;94952.50;;;21.23;100.00
13029;BME280;6581;42.662;23.402;2023-06-10T06:37:05;94958.44;;;21.31;100.00
13029;BME280;6581;42.662;23.402;2023-06-10T06:39:34;94958.31;;;21.34;100.00
13029;BME280;6581;42.662;23.402;2023-06-10T06:42:01;94949.59;;;21.17;100.00
13029;BME280;6581;42.662;23.402;2023-06-10T06:44:47;94956.81;;;20.83;100.00
13029;BME280;6581;42.662;23.402;2023-06-10T06:47:14;94953.91;;;21.15;100.00
13029;BME280;6581;42.662;23.402;2023-06-10T06:49:43;94946.94;;;21.52;100.00
13029;BME280;6581;42.662;23.402;2023-06-10T06:52:10;94955.47;;;21.85;100.00
13029;BME280;6581;42.662;23.402;2023-06-10T06:54:37;94947.47;;;21.94;100.00
13029;BME280;6581;42.662;23.402;2023-06-10T06:57:05;94944.56;;;22.10;100.00
13029;BME280;6581;42.662;23.402;2023-06-10T06:59:32;94950.72;;;22.10;99.56
13029;BME280;6581;42.662;23.402;2023-06-10T07:02:01;94946.63;;;22.28;99.60
13029;BME280;6581;42.662;23.402;2023-06-10T07:04:28;94944.53;;;22.53;99.43
13029;BME280;6581;42.662;23.402;2023-06-10T07:06:55;94952.13;;;22.46;97.50
13029;BME280;6581;42.662;23.402;2023-06-10T07:09:23;94946.34;;;22.26;97.71
13029;BME280;6581;42.662;23.402;2023-06-10T07:11:50;94946.31;;;22.78;97.29
13029;BME280;6581;42.662;23.402;2023-06-10T07:14:17;94949.03;;;22.57;94.80
13029;BME280;6581;42.662;23.402;2023-06-10T07:16:44;94952.34;;;22.91;91.35
13029;BME280;6581;42.662;23.402;2023-06-10T07:19:15;94945.09;;;23.19;91.50
13029;BME280;6581;42.662;23.402;2023-06-10T07:21:43;94946.31;;;23.18;91.58
13029;BME280;6581;42.662;23.402;2023-06-10T07:24:10;94943.94;;;23.38;92.37
13029;BME280;6581;42.662;23.402;2023-06-10T07:26:37;94947.16;;;23.64;90.65
13029;BME280;6581;42.662;23.402;2023-06-10T07:29:04;94942.63;;;24.07;85.02
13029;BME280;6581;42.662;23.402;2023-06-10T07:31:31;94938.31;;;24.18;82.20
13029;BME280;6581;42.662;23.402;2023-06-10T07:33:58;94947.41;;;23.39;82.24
13029;BME280;6581;42.662;23.402;2023-06-10T07:36:27;94938.41;;;22.93;84.62
13029;BME280;6581;42.662;23.402;2023-06-10T07:38:55;94945.63;;;23.45;82.59
13029;BME280;6581;42.662;23.402;2023-06-10T07:41:25;94946.84;;;24.26;79.36
13029;BME280;6581;42.662;23.402;2023-06-10T07:43:53;94944.00;;;24.02;74.38
13029;BME280;6581;42.662;23.402;2023-06-10T07:46:22;94937.72;;;23.69;77.16
13029;BME280;6581;42.662;23.402;2023-06-10T07:48:49;94941.59;;;23.68;78.03
13029;BME280;6581;42.662;23.402;2023-06-10T07:51:16;94950.53;;;25.07;74.69
13029;BME280;6581;42.662;23.402;2023-06-10T07:53:45;94935.84;;;27.31;60.41
13029;BME280;6581;42.662;23.402;2023-06-10T07:56:12;94942.97;;;29.19;55.90
13029;BME280;6581;42.662;23.402;2023-06-10T07:58:39;94942.69;;;29.59;48.20
13029;BME280;6581;42.662;23.402;2023-06-10T08:01:06;94938.66;;;29.06;48.83
13029;BME280;6581;42.662;23.402;2023-06-10T08:03:34;94940.34;;;29.83;46.39
13029;BME280;6581;42.662;23.402;2023-06-10T08:06:02;94950.03;;;29.36;44.96
13029;BME280;6581;42.662;23.402;2023-06-10T08:08:29;94940.34;;;29.35;45.56
13029;BME280;6581;42.662;23.402;2023-06-10T08:10:58;94947.13;;;29.08;43.33
13029;BME280;6581;42.662;23.402;2023-06-10T08:13:25;94936.03;;;28.55;42.26
13029;BME280;6581;42.662;23.402;2023-06-10T08:15:52;94938.75;;;27.83;44.86
13029;BME280;6581;42.662;23.402;2023-06-10T08:18:21;94936.78;;;28.30;43.66
13029;BME280;6581;42.662;23.402;2023-06-10T08:20:48;94937.69;;;29.10;40.50
13029;BME280;6581;42.662;23.402;2023-06-10T08:23:15;94927.59;;;28.53;39.85
13029;BME280;6581;42.662;23.402;2023-06-10T08:25:43;94926.91;;;28.89;39.48
13029;BME280;6581;42.662;23.402;2023-06-10T08:28:11;94921.09;;;29.13;40.56
13029;BME280;6581;42.662;23.402;2023-06-10T08:30:38;94922.88;;;28.53;41.07
13029;BME280;6581;42.662;23.402;2023-06-10T08:33:05;94926.44;;;28.65;41.59
13029;BME280;6581;42.662;23.402;2023-06-10T08:35:32;94924.38;;;28.54;40.36
13029;BME280;6581;42.662;23.402;2023-06-10T08:37:59;94919.56;;;28.44;41.11
13029;BME280;6581;42.662;23.402;2023-06-10T08:40:26;94911.16;;;28.16;41.61
13029;BME280;6581;42.662;23.402;2023-06-10T08:43:00;94918.34;;;27.73;42.72
13029;BME280;6581;42.662;23.402;2023-06-10T08:45:32;94910.06;;;27.62;42.24
13029;BME280;6581;42.662;23.402;2023-06-10T08:48:02;94906.72;;;27.52;45.11
13029;BME280;6581;42.662;23.402;2023-06-10T08:50:34;94899.69;;;27.25;44.39
13029;BME280;6581;42.662;23.402;2023-06-10T08:53:02;94906.91;;;26.94;46.47
13029;BME280;6581;42.662;23.402;2023-06-10T08:55:33;94904.63;;;26.42;47.52
13029;BME280;6581;42.662;23.402;2023-06-10T08:58:02;94894.41;;;26.37;48.96
13029;BME280;6581;42.662;23.402;2023-06-10T09:00:34;94891.50;;;26.41;45.79
13029;BME280;6581;42.662;23.402;2023-06-10T09:03:01;94893.19;;;26.53;45.62
13029;BME280;6581;42.662;23.402;2023-06-10T09:05:29;94880.63;;;26.26;48.53
13029;BME280;6581;42.662;23.402;2023-06-10T09:07:57;94888.94;;;26.08;45.14
13029;BME280;6581;42.662;23.402;2023-06-10T09:10:24;94888.06;;;25.73;48.46
13029;BME280;6581;42.662;23.402;2023-06-10T09:12:52;94888.81;;;25.73;48.77
13029;BME280;6581;42.662;23.402;2023-06-10T09:15:20;94878.97;;;25.61;46.66
13029;BME280;6581;42.662;23.402;2023-06-10T09:17:48;94881.63;;;25.85;45.84
13029;BME280;6581;42.662;23.402;2023-06-10T09:20:16;94882.69;;;26.02;47.90
13029;BME280;6581;42.662;23.402;2023-06-10T09:22:44;94872.34;;;25.77;47.22
13029;BME280;6581;42.662;23.402;2023-06-10T09:25:12;94881.31;;;25.68;46.65
13029;BME280;6581;42.662;23.402;2023-06-10T09:27:46;94874.16;;;25.80;46.09
13029;BME280;6581;42.662;23.402;2023-06-10T09:30:26;94869.88;;;26.02;44.79
13029;BME280;6581;42.662;23.402;2023-06-10T09:32:56;94877.56;;;26.33;46.98
13029;BME280;6581;42.662;23.402;2023-06-10T09:35:24;94866.81;;;26.39;45.84
13029;BME280;6581;42.662;23.402;2023-06-10T09:37:52;94861.13;;;26.72;47.72
13029;BME280;6581;42.662;23.402;2023-06-10T09:40:19;94867.91;;;26.82;48.82
13029;BME280;6581;42.662;23.402;2023-06-10T09:42:53;94868.03;;;26.87;45.20
13029;BME280;6581;42.662;23.402;2023-06-10T09:45:21;94869.81;;;26.76;45.09
13029;BME280;6581;42.662;23.402;2023-06-10T09:47:51;94869.31;;;26.28;45.68
13029;BME280;6581;42.662;23.402;2023-06-10T09:50:20;94867.16;;;25.02;48.52
13029;BME280;6581;42.662;23.402;2023-06-10T09:52:47;94866.47;;;25.16;49.31
13029;BME280;6581;42.662;23.402;2023-06-10T09:55:14;94862.75;;;25.52;50.85
13029;BME280;6581;42.662;23.402;2023-06-10T09:57:42;94859.19;;;25.46;48.11
13029;BME280;6581;42.662;23.402;2023-06-10T10:00:14;94848.84;;;25.21;53.31
13029;BME280;6581;42.662;23.402;2023-06-10T10:02:45;94844.63;;;25.20;50.06
13029;BME280;6581;42.662;23.402;2023-06-10T10:05:14;94840.84;;;25.17;49.73
13029;BME280;6581;42.662;23.402;2023-06-10T10:07:44;94842.28;;;25.51;49.27
13029;BME280;6581;42.662;23.402;2023-06-10T10:10:12;94841.59;;;25.80;50.25
13029;BME280;6581;42.662;23.402;2023-06-10T10:12:41;94843.72;;;25.61;48.08
13029;BME280;6581;42.662;23.402;2023-06-10T10:15:10;94839.44;;;25.45;46.05
13029;BME280;6581;42.662;23.402;2023-06-10T10:17:40;94837.56;;;25.75;48.27
13029;BME280;6581;42.662;23.402;2023-06-10T10:20:08;94820.25;;;25.87;47.28
13029;BME280;6581;42.662;23.402;2023-06-10T10:22:41;94823.72;;;26.02;46.74
13029;BME280;6581;42.662;23.402;2023-06-10T10:25:12;94823.78;;;26.52;44.35
13029;BME280;6581;42.662;23.402;2023-06-10T10:27:43;94823.00;;;27.01;44.31
13029;BME280;6581;42.662;23.402;2023-06-10T10:30:14;94819.19;;;27.33;43.24
13029;BME280;6581;42.662;23.402;2023-06-10T10:32:45;94819.31;;;27.45;43.50
13029;BME280;6581;42.662;23.402;2023-06-10T10:35:21;94826.25;;;27.05;42.69
13029;BME280;6581;42.662;23.402;2023-06-10T10:37:48;94816.16;;;26.85;45.75
13029;BME280;6581;42.662;23.402;2023-06-10T10:40:17;94819.63;;;27.26;45.92
13029;BME280;6581;42.662;23.402;2023-06-10T10:42:47;94821.50;;;27.41;43.93
13029;BME280;6581;42.662;23.402;2023-06-10T10:45:14;94817.84;;;26.68;43.59
13029;BME280;6581;42.662;23.402;2023-06-10T10:47:43;94815.19;;;26.39;43.85
13029;BME280;6581;42.662;23.402;2023-06-10T10:50:15;94805.66;;;26.43;44.80
13029;BME280;6581;42.662;23.402;2023-06-10T10:52:53;94809.03;;;26.38;44.04
13029;BME280;6581;42.662;23.402;2023-06-10T10:55:23;94804.91;;;25.99;44.82
13029;BME280;6581;42.662;23.402;2023-06-10T10:57:54;94803.22;;;26.01;45.08
13029;BME280;6581;42.662;23.402;2023-06-10T11:00:29;94804.16;;;26.13;43.65
13029;BME280;6581;42.662;23.402;2023-06-10T11:02:58;94798.47;;;26.26;43.95
13029;BME280;6581;42.662;23.402;2023-06-10T11:05:37;94789.94;;;26.33;44.75
13029;BME280;6581;42.662;23.402;2023-06-10T11:08:05;94792.81;;;26.44;44.48
13029;BME280;6581;42.662;23.402;2023-06-10T11:10:35;94793.50;;;26.59;43.68
13029;BME280;6581;42.662;23.402;2023-06-10T11:13:08;94786.66;;;26.14;42.58
13029;BME280;6581;42.662;23.402;2023-06-10T11:15:39;94786.09;;;26.10;45.13
13029;BME280;6581;42.662;23.402;2023-06-10T11:18:11;94786.50;;;26.03;43.32
13029;BME280;6581;42.662;23.402;2023-06-10T11:20:51;94767.56;;;26.09;40.64
13029;BME280;6581;42.662;23.402;2023-06-10T11:23:41;94770.28;;;26.23;42.10
13029;BME280;6581;42.662;23.402;2023-06-10T11:26:15;94766.34;;;26.24;42.42
13029;BME280;6581;42.662;23.402;2023-06-10T11:29:04;94768.06;;;26.57;41.80
13029;BME280;6581;42.662;23.402;2023-06-10T11:31:38;94764.75;;;26.67;43.91
13029;BME280;6581;42.662;23.402;2023-06-10T11:34:06;94765.59;;;26.24;42.89
13029;BME280;6581;42.662;23.402;2023-06-10T11:36:36;94760.56;;;25.73;42.17
13029;BME280;6581;42.662;23.402;2023-06-10T11:39:06;94758.63;;;25.73;43.32
13029;BME280;6581;42.662;23.402;2023-06-10T11:41:36;94759.66;;;25.61;44.63
13029;BME280;6581;42.662;23.402;2023-06-10T11:44:07;94753.13;;;25.44;43.78
13029;BME280;6581;42.662;23.402;2023-06-10T11:46:34;94751.56;;;25.52;43.05
13029;BME280;6581;42.662;23.402;2023-06-10T11:49:03;94743.34;;;25.76;42.61
13029;BME280;6581;42.662;23.402;2023-06-10T11:51:33;94739.41;;;26.21;42.67
13029;BME280;6581;42.662;23.402;2023-06-10T11:54:01;94730.78;;;26.57;42.39
13029;BME280;6581;42.662;23.402;2023-06-10T11:56:30;94737.63;;;26.53;43.19
13029;BME280;6581;42.662;23.402;2023-06-10T11:59:00;94748.78;;;26.40;42.14
13029;BME280;6581;42.662;23.402;2023-06-10T12:01:31;94738.09;;;26.51;43.18
13029;BME280;6581;42.662;23.402;2023-06-10T12:04:02;94740.56;;;26.69;41.95
13029;BME280;6581;42.662;23.402;2023-06-10T12:06:40;94732.47;;;26.75;42.34
13029;BME280;6581;42.662;23.402;2023-06-10T12:09:17;94737.38;;;27.11;41.82
13029;BME280;6581;42.662;23.402;2023-06-10T12:11:45;94737.00;;;27.24;41.66
13029;BME280;6581;42.662;23.402;2023-06-10T12:14:14;94732.16;;;27.54;40.33
13029;BME280;6581;42.662;23.402;2023-06-10T12:16:48;94735.91;;;27.88;39.30
13029;BME280;6581;42.662;23.402;2023-06-10T12:19:15;94736.91;;;27.90;36.39
13029;BME280;6581;42.662;23.402;2023-06-10T12:21:44;94734.16;;;27.85;37.04
13029;BME280;6581;42.662;23.402;2023-06-10T12:24:11;94728.75;;;27.90;36.81
13029;BME280;6581;42.662;23.402;2023-06-10T12:26:42;94723.88;;;28.00;36.52
13029;BME280;6581;42.662;23.402;2023-06-10T12:29:19;94723.38;;;28.01;39.68
13029;BME280;6581;42.662;23.402;2023-06-10T12:31:59;94728.06;;;27.95;37.84
13029;BME280;6581;42.662;23.402;2023-06-10T12:34:32;94726.47;;;27.83;38.25
13029;BME280;6581;42.662;23.402;2023-06-10T12:37:00;94721.44;;;28.07;38.48
13029;BME280;6581;42.662;23.402;2023-06-10T12:39:30;94723.75;;;28.14;38.02
13029;BME280;6581;42.662;23.402;2023-06-10T12:41:58;94721.44;;;28.07;35.00
13029;BME280;6581;42.662;23.402;2023-06-10T12:44:33;94719.50;;;27.76;34.67
13029;BME280;6581;42.662;23.402;2023-06-10T12:47:07;94705.72;;;27.60;34.62
13029;BME280;6581;42.662;23.402;2023-06-10T12:49:35;94697.66;;;27.71;35.37
13029;BME280;6581;42.662;23.402;2023-06-10T12:52:03;94697.41;;;27.43;36.32
13029;BME280;6581;42.662;23.402;2023-06-10T12:54:30;94701.97;;;27.52;37.54
13029;BME280;6581;42.662;23.402;2023-06-10T12:56:57;94709.16;;;27.55;36.49
13029;BME280;6581;42.662;23.402;2023-06-10T12:59:25;94698.53;;;27.57;36.29
13029;BME280;6581;42.662;23.402;2023-06-10T13:01:54;94711.09;;;27.28;35.40
13029;BME280;6581;42.662;23.402;2023-06-10T13:04:22;94712.44;;;27.39;37.08